Time;durP1;ratioP1;P1;durP2;ratioP2;P2;SDS_P1;SDS_P2;PMS_P1;PMS_P2;Temp;Humidity;BMP_temperature;BMP_pressure;BME280_temperature;BME280_humidity;BME280_pressure;Samples;Min_cycle;Max_cycle;Signal;HPM_P1;HPM_P2
2023/07/28 00:00:25;;;;;;;5.7;2.4;;;;;;;16.36;67.1;;;;;
2023/07/28 00:11:25;;;;;;;5.7;2.4;;;;;;;16.19;68.81;;;;;
2023/07/28 00:21:25;;;;;;;5.7;2.4;;;;;;;16.08;69;;;;;
2023/07/28 00:32:25;;;;;;;6.2;3.2;;;;;;;16.03;67.07;;;;;
2023/07/28 00:42:25;;;;;;;6.2;3.2;;;;;;;16.1;64.55;;;;;
2023/07/28 00:52:25;;;;;;;3.6;1.9;;;;;;;16.43;61.86;;;;;
2023/07/28 01:03:25;;;;;;;3.6;1.9;;;;;;;16.69;60.33;;;;;
2023/07/28 01:14:25;;;;;;;3.6;1.9;;;;;;;16.78;61.53;;;;;
2023/07/28 01:24:25;;;;;;;4.2;1.8;;;;;;;16.8;61.89;;;;;
2023/07/28 01:34:25;;;;;;;4.2;1.8;;;;;;;16.79;60.63;;;;;
2023/07/28 01:45:25;;;;;;;4.2;1.8;;;;;;;16.68;62.43;;;;;
2023/07/28 01:55:25;;;;;;;3.9;1.9;;;;;;;16.73;62.39;;;;;
2023/07/28 02:06:27;;;;;;;3.9;1.9;;;;;;;16.71;63.68;;;;;
2023/07/28 02:16:27;;;;;;;3.9;1.9;;;;;;;16.7;63.13;;;;;
2023/07/28 02:27:25;;;;;;;5.7;2.4;;;;;;;16.63;65.41;;;;;
2023/07/28 02:37:25;;;;;;;5.7;2.4;;;;;;;16.62;65.41;;;;;
2023/07/28 02:48:25;;;;;;;5.7;2.4;;;;;;;16.62;65.25;;;;;
2023/07/28 02:58:25;;;;;;;4.1;2.2;;;;;;;16.68;65.87;;;;;
2023/07/28 03:09:25;;;;;;;4.1;2.2;;;;;;;16.75;65.36;;;;;
2023/07/28 03:19:25;;;;;;;4.1;2.2;;;;;;;16.79;65.56;;;;;
2023/07/28 03:30:25;;;;;;;4.5;2.3;;;;;;;16.82;65.64;;;;;
2023/07/28 03:41:25;;;;;;;4.5;2.3;;;;;;;16.87;65.47;;;;;
2023/07/28 03:52:25;;;;;;;4.9;1.7;;;;;;;16.92;65.68;;;;;
2023/07/28 04:03:25;;;;;;;4.9;1.7;;;;;;;17.01;66.32;;;;;
2023/07/28 04:13:25;;;;;;;4.9;1.7;;;;;;;17.06;66.58;;;;;
2023/07/28 04:23:25;;;;;;;4.5;2;;;;;;;17.16;67.08;;;;;
2023/07/28 04:34:25;;;;;;;4.5;2;;;;;;;17.27;66.42;;;;;
2023/07/28 04:44:25;;;;;;;4.5;2;;;;;;;17.48;65.4;;;;;
2023/07/28 04:55:26;;;;;;;5;1.8;;;;;;;17.67;65.28;;;;;
2023/07/28 05:06:25;;;;;;;5;1.8;;;;;;;17.81;65.49;;;;;
2023/07/28 05:16:25;;;;;;;5;1.8;;;;;;;17.88;65.44;;;;;
2023/07/28 05:27:25;;;;;;;4.2;2;;;;;;;18.04;64.86;;;;;
2023/07/28 05:37:25;;;;;;;4.2;2;;;;;;;18.31;65.01;;;;;
2023/07/28 05:47:25;;;;;;;4.2;2;;;;;;;18.5;63.65;;;;;
2023/07/28 05:58:25;;;;;;;3.7;1.8;;;;;;;18.54;63.86;;;;;
2023/07/28 06:08:25;;;;;;;3.7;1.8;;;;;;;18.55;64.62;;;;;
2023/07/28 06:18:25;;;;;;;3.7;1.8;;;;;;;18.61;66.05;;;;;
2023/07/28 06:29:25;;;;;;;4.5;2.1;;;;;;;18.47;69.99;;;;;
2023/07/28 06:40:25;;;;;;;4.5;2.1;;;;;;;18.13;72.07;;;;;
2023/07/28 06:51:25;;;;;;;4.5;2.1;;;;;;;18.15;71.51;;;;;
2023/07/28 07:01:25;;;;;;;4.3;2.1;;;;;;;18.15;72.7;;;;;
2023/07/28 07:12:25;;;;;;;4.3;2.1;;;;;;;18.33;73.06;;;;;
2023/07/28 07:23:25;;;;;;;4.2;1.8;;;;;;;18.18;74.88;;;;;
2023/07/28 07:33:25;;;;;;;4.2;1.8;;;;;;;17.95;76.76;;;;;
2023/07/28 07:44:25;;;;;;;4.2;1.8;;;;;;;18.01;77.65;;;;;
2023/07/28 07:54:25;;;;;;;8.2;4.6;;;;;;;18.17;77.67;;;;;
2023/07/28 08:04:25;;;;;;;8.2;4.6;;;;;;;18.29;77.39;;;;;
2023/07/28 08:14:25;;;;;;;8.2;4.6;;;;;;;18.59;76.78;;;;;
2023/07/28 08:40:35;;;;;;;6.2;3;;;;;;;19.53;71.65;;;;;
2023/07/28 08:50:35;;;;;;;6.2;3;;;;;;;19.58;72.33;;;;;
2023/07/28 09:00:35;;;;;;;3.4;1.6;;;;;;;19.47;72.75;;;;;
2023/07/28 09:11:35;;;;;;;3.4;1.6;;;;;;;19.25;74.94;;;;;
2023/07/28 09:21:35;;;;;;;3.4;1.6;;;;;;;19.17;75.8;;;;;
2023/07/28 09:32:37;;;;;;;6.4;1.7;;;;;;;19.37;76.34;;;;;
2023/07/28 09:42:35;;;;;;;6.4;1.7;;;;;;;20.29;74.44;;;;;
2023/07/28 09:53:35;;;;;;;3.7;2;;;;;;;20.87;69.15;;;;;
2023/07/28 10:04:35;;;;;;;3.7;2;;;;;;;22.31;66.5;;;;;
2023/07/28 10:15:37;;;;;;;3.7;2;;;;;;;22.32;66.09;;;;;
2023/07/28 10:25:35;;;;;;;3.7;1.8;;;;;;;22.36;65.64;;;;;
2023/07/28 10:35:35;;;;;;;3.7;1.8;;;;;;;22.14;66.01;;;;;
2023/07/28 10:46:36;;;;;;;3.7;1.8;;;;;;;22.72;63.65;;;;;
2023/07/28 10:57:35;;;;;;;3.2;1.2;;;;;;;22.13;64.02;;;;;
2023/07/28 11:07:35;;;;;;;3.2;1.2;;;;;;;21.97;64.99;;;;;
2023/07/28 11:18:36;;;;;;;3.2;1.2;;;;;;;21.56;65.77;;;;;
2023/07/28 11:29:35;;;;;;;1.4;0.7;;;;;;;22.4;65.01;;;;;
2023/07/28 11:40:36;;;;;;;1.4;0.7;;;;;;;23.21;64.49;;;;;
2023/07/28 11:50:36;;;;;;;1.4;0.7;;;;;;;23.87;61.11;;;;;
2023/07/28 12:00:35;;;;;;;1.3;0.7;;;;;;;23.5;63.12;;;;;
2023/07/28 12:11:35;;;;;;;1.3;0.7;;;;;;;23.87;62.47;;;;;
2023/07/28 12:22:35;;;;;;;1.5;0.6;;;;;;;23.97;60.98;;;;;
2023/07/28 12:33:35;;;;;;;1.5;0.6;;;;;;;23.91;62.33;;;;;
2023/07/28 12:43:35;;;;;;;1.5;0.6;;;;;;;24.39;61.98;;;;;
2023/07/28 12:53:35;;;;;;;2.8;1.3;;;;;;;24.05;62.48;;;;;
2023/07/28 13:03:36;;;;;;;2.8;1.3;;;;;;;24.77;62.24;;;;;
2023/07/28 13:14:36;;;;;;;2.8;1.3;;;;;;;24.73;60.77;;;;;
2023/07/28 13:25:35;;;;;;;2.3;0.9;;;;;;;24.58;63.19;;;;;
2023/07/28 13:36:36;;;;;;;2.3;0.9;;;;;;;24.04;64.82;;;;;
2023/07/28 13:46:35;;;;;;;2.3;0.9;;;;;;;23.78;63.59;;;;;
2023/07/28 13:56:35;;;;;;;1.7;0.7;;;;;;;23.92;63.24;;;;;
2023/07/28 14:07:35;;;;;;;1.7;0.7;;;;;;;24.68;60.59;;;;;
2023/07/28 14:18:35;;;;;;;1.7;0.7;;;;;;;25.11;56.91;;;;;
2023/07/28 14:29:35;;;;;;;1.5;0.7;;;;;;;25.37;59.41;;;;;
2023/07/28 14:39:36;;;;;;;1.5;0.7;;;;;;;25.46;57.44;;;;;
2023/07/28 14:50:35;;;;;;;1.5;0.7;;;;;;;26.54;56.43;;;;;
2023/07/28 15:00:35;;;;;;;1.7;0.8;;;;;;;26.59;55.54;;;;;
2023/07/28 15:10:36;;;;;;;1.7;0.8;;;;;;;26.66;55.49;;;;;
2023/07/28 15:21:35;;;;;;;1.7;0.8;;;;;;;27.55;50.51;;;;;
2023/07/28 15:31:35;;;;;;;3.1;1.1;;;;;;;29.3;46.67;;;;;
2023/07/28 15:42:35;;;;;;;;;;;;;;;;;;;;;
2023/07/28 15:52:36;;;;;;;;;;;;;;;;;;;;;
2023/07/28 16:03:35;;;;;;;;;;;;;;;;;;;;;
2023/07/28 16:13:35;;;;;;;;;;;;;;;;;;;;;
2023/07/28 16:24:37;;;;;;;4.2;1.6;;;;;;;27.71;50.77;;;;;
2023/07/28 16:35:35;;;;;;;4.2;1.6;;;;;;;26.78;52.6;;;;;
2023/07/28 16:45:35;;;;;;;4.2;1.6;;;;;;;26.04;56.44;;;;;
2023/07/28 16:56:35;;;;;;;3.4;1.4;;;;;;;25.8;55.58;;;;;
2023/07/28 17:07:35;;;;;;;3.4;1.4;;;;;;;24.7;58.86;;;;;
2023/07/28 17:17:36;;;;;;;3.4;1.4;;;;;;;23.73;61.57;;;;;
2023/07/28 17:28:35;;;;;;;3.6;2;;;;;;;23.05;63.76;;;;;
2023/07/28 17:39:35;;;;;;;3.6;2;;;;;;;22.83;65.46;;;;;
2023/07/28 17:49:37;;;;;;;3.6;2;;;;;;;22.72;65.22;;;;;
2023/07/28 18:00:35;;;;;;;5.5;2.3;;;;;;;22.52;65.56;;;;;
2023/07/28 18:10:35;;;;;;;5.5;2.3;;;;;;;22.11;67.38;;;;;
2023/07/28 18:21:35;;;;;;;5.5;2.3;;;;;;;21.73;68.08;;;;;
2023/07/28 18:31:36;;;;;;;4.7;2;;;;;;;21.4;69.47;;;;;
2023/07/28 18:42:36;;;;;;;4.7;2;;;;;;;20.97;70.9;;;;;
2023/07/28 18:52:36;;;;;;;4.2;2.2;;;;;;;20.65;72.79;;;;;
2023/07/28 19:02:35;;;;;;;4.2;2.2;;;;;;;20.33;73.34;;;;;
2023/07/28 19:13:35;;;;;;;4.2;2.2;;;;;;;19.96;75.62;;;;;
2023/07/28 19:23:36;;;;;;;4.5;2.5;;;;;;;19.76;76.41;;;;;
2023/07/28 19:33:36;;;;;;;4.5;2.5;;;;;;;19.56;77.28;;;;;
2023/07/28 19:44:36;;;;;;;4.5;2.5;;;;;;;19.41;77.35;;;;;
2023/07/28 19:54:36;;;;;;;5.9;2.8;;;;;;;19.31;78;;;;;
2023/07/28 20:05:36;;;;;;;5.9;2.8;;;;;;;19.22;78.28;;;;;
2023/07/28 20:15:36;;;;;;;5.9;2.8;;;;;;;19.3;78.6;;;;;
2023/07/28 20:25:36;;;;;;;4.6;2.5;;;;;;;19.42;78.33;;;;;
2023/07/28 20:36:36;;;;;;;4.6;2.5;;;;;;;19.51;77.71;;;;;
2023/07/28 20:47:37;;;;;;;4.6;2.5;;;;;;;19.44;77.79;;;;;
2023/07/28 20:57:36;;;;;;;4.9;2.6;;;;;;;19.24;78.33;;;;;
2023/07/28 21:07:36;;;;;;;4.9;2.6;;;;;;;19.15;79.03;;;;;
2023/07/28 21:18:36;;;;;;;4.9;2.6;;;;;;;19.18;78.89;;;;;
2023/07/28 21:29:36;;;;;;;4.8;2.3;;;;;;;19.08;80.73;;;;;
2023/07/28 21:39:36;;;;;;;4.8;2.3;;;;;;;18.93;80.82;;;;;
2023/07/28 21:50:36;;;;;;;4.8;2.3;;;;;;;18.6;81.87;;;;;
2023/07/28 22:00:36;;;;;;;6.8;3.6;;;;;;;18.54;81.81;;;;;
2023/07/28 22:11:36;;;;;;;6.8;3.6;;;;;;;18.54;81.38;;;;;
2023/07/28 22:22:36;;;;;;;6;3.4;;;;;;;18.42;81.5;;;;;
2023/07/28 22:32:36;;;;;;;6;3.4;;;;;;;18.28;81.88;;;;;
2023/07/28 22:43:36;;;;;;;6;3.4;;;;;;;18.19;81.01;;;;;
2023/07/28 22:53:36;;;;;;;4;2.1;;;;;;;18.01;81.25;;;;;
2023/07/28 23:03:36;;;;;;;4;2.1;;;;;;;17.82;81.6;;;;;
2023/07/28 23:13:36;;;;;;;4;2.1;;;;;;;17.69;81.75;;;;;
2023/07/28 23:24:36;;;;;;;4.5;2.3;;;;;;;17.52;82.3;;;;;
2023/07/28 23:34:36;;;;;;;4.5;2.3;;;;;;;17.43;82.83;;;;;
2023/07/28 23:45:36;;;;;;;4.5;2.3;;;;;;;17.42;83.13;;;;;
2023/07/28 23:55:36;;;;;;;4.3;2.3;;;;;;;17.59;84.08;;;;;
